sensor_id;sensor_type;location;lat;lon;timestamp;P1;durP1;ratioP1;P2;durP2;ratioP2
13445;SDS011;6795;51.232;3.764;2022-10-16T00:01:43;0.30;;;0.20;;
13445;SDS011;6795;51.232;3.764;2022-10-16T00:04:12;0.25;;;0.22;;
13445;SDS011;6795;51.232;3.764;2022-10-16T00:06:45;0.80;;;0.30;;
13445;SDS011;6795;51.232;3.764;2022-10-16T00:09:14;0.20;;;0.20;;
13445;SDS011;6795;51.232;3.764;2022-10-16T00:11:42;0.75;;;0.20;;
13445;SDS011;6795;51.232;3.764;2022-10-16T00:14:11;1.40;;;0.20;;
13445;SDS011;6795;51.232;3.764;2022-10-16T00:16:41;0.40;;;0.40;;
13445;SDS011;6795;51.232;3.764;2022-10-16T00:19:10;1.65;;;0.30;;
13445;SDS011;6795;51.232;3.764;2022-10-16T00:21:39;0.30;;;0.30;;
13445;SDS011;6795;51.232;3.764;2022-10-16T00:24:10;0.38;;;0.13;;
13445;SDS011;6795;51.232;3.764;2022-10-16T00:26:39;0.70;;;0.20;;
13445;SDS011;6795;51.232;3.764;2022-10-16T00:29:08;0.20;;;0.20;;
13445;SDS011;6795;51.232;3.764;2022-10-16T00:31:36;0.20;;;0.20;;
13445;SDS011;6795;51.232;3.764;2022-10-16T00:34:06;0.20;;;0.20;;
13445;SDS011;6795;51.232;3.764;2022-10-16T00:36:34;0.93;;;0.15;;
13445;SDS011;6795;51.232;3.764;2022-10-16T00:39:02;1.52;;;0.17;;
13445;SDS011;6795;51.232;3.764;2022-10-16T00:41:32;0.65;;;0.20;;
13445;SDS011;6795;51.232;3.764;2022-10-16T00:44:01;0.10;;;0.10;;
13445;SDS011;6795;51.232;3.764;2022-10-16T00:46:50;0.52;;;0.10;;
13445;SDS011;6795;51.232;3.764;2022-10-16T00:49:19;0.40;;;0.20;;
13445;SDS011;6795;51.232;3.764;2022-10-16T00:51:49;1.20;;;0.20;;
13445;SDS011;6795;51.232;3.764;2022-10-16T00:54:21;1.00;;;0.30;;
13445;SDS011;6795;51.232;3.764;2022-10-16T00:56:53;1.85;;;0.73;;
13445;SDS011;6795;51.232;3.764;2022-10-16T00:59:22;1.45;;;0.20;;
13445;SDS011;6795;51.232;3.764;2022-10-16T01:01:53;0.40;;;0.22;;
13445;SDS011;6795;51.232;3.764;2022-10-16T01:04:22;0.10;;;0.10;;
13445;SDS011;6795;51.232;3.764;2022-10-16T01:06:53;1.98;;;0.25;;
13445;SDS011;6795;51.232;3.764;2022-10-16T01:09:34;0.40;;;0.20;;
13445;SDS011;6795;51.232;3.764;2022-10-16T01:12:14;0.20;;;0.20;;
13445;SDS011;6795;51.232;3.764;2022-10-16T01:14:47;0.45;;;0.20;;
13445;SDS011;6795;51.232;3.764;2022-10-16T01:17:21;1.00;;;0.70;;
13445;SDS011;6795;51.232;3.764;2022-10-16T01:20:01;0.40;;;0.20;;
13445;SDS011;6795;51.232;3.764;2022-10-16T01:22:37;1.75;;;0.30;;
13445;SDS011;6795;51.232;3.764;2022-10-16T01:25:16;1.92;;;0.28;;
13445;SDS011;6795;51.232;3.764;2022-10-16T01:28:09;0.55;;;0.20;;
13445;SDS011;6795;51.232;3.764;2022-10-16T01:30:40;0.68;;;0.30;;
13445;SDS011;6795;51.232;3.764;2022-10-16T01:33:13;1.48;;;0.20;;
13445;SDS011;6795;51.232;3.764;2022-10-16T01:35:46;0.28;;;0.20;;
13445;SDS011;6795;51.232;3.764;2022-10-16T01:38:20;1.15;;;0.30;;
13445;SDS011;6795;51.232;3.764;2022-10-16T01:40:54;1.60;;;0.30;;
13445;SDS011;6795;51.232;3.764;2022-10-16T01:43:33;1.80;;;0.30;;
13445;SDS011;6795;51.232;3.764;2022-10-16T01:46:05;1.27;;;0.30;;
13445;SDS011;6795;51.232;3.764;2022-10-16T01:48:34;0.20;;;0.20;;
13445;SDS011;6795;51.232;3.764;2022-10-16T01:51:05;0.88;;;0.40;;
13445;SDS011;6795;51.232;3.764;2022-10-16T01:53:35;2.28;;;0.60;;
13445;SDS011;6795;51.232;3.764;2022-10-16T01:56:05;3.55;;;0.57;;
13445;SDS011;6795;51.232;3.764;2022-10-16T01:58:39;1.65;;;0.30;;
13445;SDS011;6795;51.232;3.764;2022-10-16T02:01:11;1.95;;;0.40;;
13445;SDS011;6795;51.232;3.764;2022-10-16T02:03:48;0.63;;;0.30;;
13445;SDS011;6795;51.232;3.764;2022-10-16T02:06:19;0.65;;;0.30;;
13445;SDS011;6795;51.232;3.764;2022-10-16T02:08:49;2.95;;;0.30;;
13445;SDS011;6795;51.232;3.764;2022-10-16T02:11:17;1.08;;;0.30;;
13445;SDS011;6795;51.232;3.764;2022-10-16T02:13:48;0.57;;;0.40;;
13445;SDS011;6795;51.232;3.764;2022-10-16T02:16:23;0.22;;;0.22;;
13445;SDS011;6795;51.232;3.764;2022-10-16T02:19:01;1.60;;;0.32;;
13445;SDS011;6795;51.232;3.764;2022-10-16T02:21:32;0.60;;;0.20;;
13445;SDS011;6795;51.232;3.764;2022-10-16T02:24:06;1.25;;;0.30;;
13445;SDS011;6795;51.232;3.764;2022-10-16T02:26:45;1.38;;;0.30;;
13445;SDS011;6795;51.232;3.764;2022-10-16T02:29:20;0.75;;;0.32;;
13445;SDS011;6795;51.232;3.764;2022-10-16T02:31:53;1.45;;;0.30;;
13445;SDS011;6795;51.232;3.764;2022-10-16T02:34:26;1.98;;;0.70;;
13445;SDS011;6795;51.232;3.764;2022-10-16T02:36:56;2.95;;;0.50;;
13445;SDS011;6795;51.232;3.764;2022-10-16T02:39:26;0.75;;;0.40;;
13445;SDS011;6795;51.232;3.764;2022-10-16T02:41:56;1.17;;;0.30;;
13445;SDS011;6795;51.232;3.764;2022-10-16T02:44:25;2.90;;;0.50;;
13445;SDS011;6795;51.232;3.764;2022-10-16T02:46:54;0.63;;;0.40;;
13445;SDS011;6795;51.232;3.764;2022-10-16T02:49:22;2.38;;;0.40;;
13445;SDS011;6795;51.232;3.764;2022-10-16T02:51:51;4.22;;;0.70;;
13445;SDS011;6795;51.232;3.764;2022-10-16T02:54:19;1.45;;;0.50;;
13445;SDS011;6795;51.232;3.764;2022-10-16T02:56:47;0.95;;;0.77;;
13445;SDS011;6795;51.232;3.764;2022-10-16T02:59:16;3.30;;;0.60;;
13445;SDS011;6795;51.232;3.764;2022-10-16T03:01:45;3.25;;;0.43;;
13445;SDS011;6795;51.232;3.764;2022-10-16T03:04:13;1.95;;;0.40;;
13445;SDS011;6795;51.232;3.764;2022-10-16T03:06:42;2.47;;;0.40;;
13445;SDS011;6795;51.232;3.764;2022-10-16T03:09:10;0.60;;;0.55;;
13445;SDS011;6795;51.232;3.764;2022-10-16T03:11:39;3.10;;;0.80;;
13445;SDS011;6795;51.232;3.764;2022-10-16T03:14:26;1.58;;;0.57;;
13445;SDS011;6795;51.232;3.764;2022-10-16T03:17:38;2.50;;;0.50;;
13445;SDS011;6795;51.232;3.764;2022-10-16T03:20:07;2.40;;;0.60;;
13445;SDS011;6795;51.232;3.764;2022-10-16T03:22:35;2.10;;;0.50;;
13445;SDS011;6795;51.232;3.764;2022-10-16T03:25:04;0.50;;;0.43;;
13445;SDS011;6795;51.232;3.764;2022-10-16T03:27:33;0.45;;;0.40;;
13445;SDS011;6795;51.232;3.764;2022-10-16T03:30:11;3.83;;;0.40;;
13445;SDS011;6795;51.232;3.764;2022-10-16T03:32:53;3.17;;;0.60;;
13445;SDS011;6795;51.232;3.764;2022-10-16T03:35:22;1.95;;;0.50;;
13445;SDS011;6795;51.232;3.764;2022-10-16T03:37:51;2.08;;;0.30;;
13445;SDS011;6795;51.232;3.764;2022-10-16T03:40:19;1.95;;;0.50;;
13445;SDS011;6795;51.232;3.764;2022-10-16T03:42:48;1.08;;;0.50;;
13445;SDS011;6795;51.232;3.764;2022-10-16T03:45:16;2.47;;;0.40;;
13445;SDS011;6795;51.232;3.764;2022-10-16T03:47:46;3.75;;;0.80;;
13445;SDS011;6795;51.232;3.764;2022-10-16T03:50:16;1.05;;;0.50;;
13445;SDS011;6795;51.232;3.764;2022-10-16T03:52:44;0.93;;;0.40;;
13445;SDS011;6795;51.232;3.764;2022-10-16T03:55:12;2.55;;;0.57;;
13445;SDS011;6795;51.232;3.764;2022-10-16T03:57:41;3.00;;;0.40;;
13445;SDS011;6795;51.232;3.764;2022-10-16T04:00:10;1.42;;;0.50;;
13445;SDS011;6795;51.232;3.764;2022-10-16T04:02:39;1.10;;;0.50;;
13445;SDS011;6795;51.232;3.764;2022-10-16T04:05:08;0.93;;;0.40;;
13445;SDS011;6795;51.232;3.764;2022-10-16T04:07:38;4.57;;;0.95;;
13445;SDS011;6795;51.232;3.764;2022-10-16T04:10:06;2.53;;;0.50;;
13445;SDS011;6795;51.232;3.764;2022-10-16T04:12:35;0.57;;;0.47;;
13445;SDS011;6795;51.232;3.764;2022-10-16T04:15:04;1.38;;;0.40;;
13445;SDS011;6795;51.232;3.764;2022-10-16T04:17:32;2.25;;;0.52;;
13445;SDS011;6795;51.232;3.764;2022-10-16T04:20:01;1.65;;;0.40;;
13445;SDS011;6795;51.232;3.764;2022-10-16T04:22:29;0.73;;;0.35;;
13445;SDS011;6795;51.232;3.764;2022-10-16T04:24:59;1.75;;;0.68;;
13445;SDS011;6795;51.232;3.764;2022-10-16T04:27:27;2.58;;;0.50;;
13445;SDS011;6795;51.232;3.764;2022-10-16T04:29:57;2.83;;;0.50;;
13445;SDS011;6795;51.232;3.764;2022-10-16T04:32:26;3.75;;;0.40;;
13445;SDS011;6795;51.232;3.764;2022-10-16T04:35:18;2.90;;;0.52;;
13445;SDS011;6795;51.232;3.764;2022-10-16T04:37:47;1.52;;;0.65;;
13445;SDS011;6795;51.232;3.764;2022-10-16T04:40:16;2.20;;;0.75;;
13445;SDS011;6795;51.232;3.764;2022-10-16T04:42:45;0.47;;;0.47;;
13445;SDS011;6795;51.232;3.764;2022-10-16T04:45:13;2.20;;;0.63;;
13445;SDS011;6795;51.232;3.764;2022-10-16T04:47:42;1.48;;;0.57;;
13445;SDS011;6795;51.232;3.764;2022-10-16T04:50:11;0.80;;;0.50;;
13445;SDS011;6795;51.232;3.764;2022-10-16T04:52:39;0.93;;;0.40;;
13445;SDS011;6795;51.232;3.764;2022-10-16T04:55:08;2.05;;;0.75;;
13445;SDS011;6795;51.232;3.764;2022-10-16T04:57:37;2.58;;;0.43;;
13445;SDS011;6795;51.232;3.764;2022-10-16T05:00:06;4.47;;;0.50;;
13445;SDS011;6795;51.232;3.764;2022-10-16T05:02:35;0.50;;;0.50;;
13445;SDS011;6795;51.232;3.764;2022-10-16T05:05:04;2.28;;;0.50;;
13445;SDS011;6795;51.232;3.764;2022-10-16T05:07:33;2.42;;;0.40;;
13445;SDS011;6795;51.232;3.764;2022-10-16T05:10:02;3.35;;;0.88;;
13445;SDS011;6795;51.232;3.764;2022-10-16T05:12:31;2.67;;;0.47;;
13445;SDS011;6795;51.232;3.764;2022-10-16T05:15:01;3.78;;;0.70;;
13445;SDS011;6795;51.232;3.764;2022-10-16T05:17:30;2.15;;;0.45;;
13445;SDS011;6795;51.232;3.764;2022-10-16T05:19:58;3.22;;;0.70;;
13445;SDS011;6795;51.232;3.764;2022-10-16T05:22:27;2.88;;;0.60;;
13445;SDS011;6795;51.232;3.764;2022-10-16T05:25:07;3.05;;;0.68;;
13445;SDS011;6795;51.232;3.764;2022-10-16T05:28:16;4.43;;;0.50;;
13445;SDS011;6795;51.232;3.764;2022-10-16T05:32:07;3.30;;;0.55;;
13445;SDS011;6795;51.232;3.764;2022-10-16T05:35:09;1.58;;;0.60;;
13445;SDS011;6795;51.232;3.764;2022-10-16T05:38:45;5.80;;;0.80;;
13445;SDS011;6795;51.232;3.764;2022-10-16T05:42:23;0.80;;;0.40;;
13445;SDS011;6795;51.232;3.764;2022-10-16T05:46:00;1.95;;;0.60;;
13445;SDS011;6795;51.232;3.764;2022-10-16T05:49:10;4.57;;;0.43;;
13445;SDS011;6795;51.232;3.764;2022-10-16T05:52:28;4.03;;;0.60;;
13445;SDS011;6795;51.232;3.764;2022-10-16T05:55:53;3.22;;;0.60;;
13445;SDS011;6795;51.232;3.764;2022-10-16T05:59:33;1.77;;;0.50;;
13445;SDS011;6795;51.232;3.764;2022-10-16T06:02:14;8.50;;;0.63;;
13445;SDS011;6795;51.232;3.764;2022-10-16T06:08:55;1.23;;;0.70;;
13445;SDS011;6795;51.232;3.764;2022-10-16T06:12:03;1.67;;;0.60;;
13445;SDS011;6795;51.232;3.764;2022-10-16T06:14:45;6.50;;;0.70;;
13445;SDS011;6795;51.232;3.764;2022-10-16T06:17:14;2.35;;;1.33;;
13445;SDS011;6795;51.232;3.764;2022-10-16T06:19:43;4.55;;;1.02;;
13445;SDS011;6795;51.232;3.764;2022-10-16T06:22:12;1.83;;;0.50;;
13445;SDS011;6795;51.232;3.764;2022-10-16T06:24:41;3.50;;;1.08;;
13445;SDS011;6795;51.232;3.764;2022-10-16T06:27:09;6.45;;;1.05;;
13445;SDS011;6795;51.232;3.764;2022-10-16T06:29:38;1.15;;;0.50;;
13445;SDS011;6795;51.232;3.764;2022-10-16T06:32:06;7.50;;;0.95;;
13445;SDS011;6795;51.232;3.764;2022-10-16T06:34:34;2.30;;;1.00;;
13445;SDS011;6795;51.232;3.764;2022-10-16T06:37:08;4.70;;;1.05;;
13445;SDS011;6795;51.232;3.764;2022-10-16T06:39:38;4.55;;;1.35;;
13445;SDS011;6795;51.232;3.764;2022-10-16T06:42:06;2.75;;;1.25;;
13445;SDS011;6795;51.232;3.764;2022-10-16T06:44:35;1.48;;;0.52;;
13445;SDS011;6795;51.232;3.764;2022-10-16T06:47:03;3.35;;;1.67;;
13445;SDS011;6795;51.232;3.764;2022-10-16T06:49:31;2.08;;;1.02;;
13445;SDS011;6795;51.232;3.764;2022-10-16T06:51:59;5.57;;;1.15;;
13445;SDS011;6795;51.232;3.764;2022-10-16T06:54:28;5.97;;;1.35;;
13445;SDS011;6795;51.232;3.764;2022-10-16T06:57:08;1.10;;;0.65;;
13445;SDS011;6795;51.232;3.764;2022-10-16T06:59:37;4.45;;;1.33;;
13445;SDS011;6795;51.232;3.764;2022-10-16T07:02:10;1.30;;;0.63;;
13445;SDS011;6795;51.232;3.764;2022-10-16T07:05:00;1.77;;;0.60;;
13445;SDS011;6795;51.232;3.764;2022-10-16T07:08:03;2.25;;;1.00;;
13445;SDS011;6795;51.232;3.764;2022-10-16T07:11:22;5.97;;;0.57;;
13445;SDS011;6795;51.232;3.764;2022-10-16T07:18:17;2.78;;;0.73;;
13445;SDS011;6795;51.232;3.764;2022-10-16T07:21:44;3.00;;;0.40;;
13445;SDS011;6795;51.232;3.764;2022-10-16T07:25:00;3.72;;;0.88;;
13445;SDS011;6795;51.232;3.764;2022-10-16T07:28:16;4.60;;;0.50;;
13445;SDS011;6795;51.232;3.764;2022-10-16T07:31:34;2.25;;;0.60;;
13445;SDS011;6795;51.232;3.764;2022-10-16T07:34:48;2.17;;;0.73;;
13445;SDS011;6795;51.232;3.764;2022-10-16T07:38:11;2.45;;;1.08;;
13445;SDS011;6795;51.232;3.764;2022-10-16T07:41:20;2.17;;;0.43;;
13445;SDS011;6795;51.232;3.764;2022-10-16T07:44:25;2.50;;;0.90;;
13445;SDS011;6795;51.232;3.764;2022-10-16T07:47:50;3.03;;;1.13;;
13445;SDS011;6795;51.232;3.764;2022-10-16T07:51:20;2.80;;;0.85;;
13445;SDS011;6795;51.232;3.764;2022-10-16T07:54:54;4.53;;;0.60;;
13445;SDS011;6795;51.232;3.764;2022-10-16T07:58:19;1.17;;;0.40;;
13445;SDS011;6795;51.232;3.764;2022-10-16T08:01:52;5.78;;;1.02;;
13445;SDS011;6795;51.232;3.764;2022-10-16T08:08:27;3.50;;;0.65;;
13445;SDS011;6795;51.232;3.764;2022-10-16T08:11:28;3.05;;;0.40;;
13445;SDS011;6795;51.232;3.764;2022-10-16T08:14:52;1.55;;;0.60;;
13445;SDS011;6795;51.232;3.764;2022-10-16T08:18:38;2.63;;;0.47;;
13445;SDS011;6795;51.232;3.764;2022-10-16T08:22:26;3.08;;;0.73;;
13445;SDS011;6795;51.232;3.764;2022-10-16T08:26:00;0.80;;;0.60;;
13445;SDS011;6795;51.232;3.764;2022-10-16T08:29:09;1.10;;;0.60;;
13445;SDS011;6795;51.232;3.764;2022-10-16T08:32:58;2.78;;;0.50;;
13445;SDS011;6795;51.232;3.764;2022-10-16T08:36:03;3.63;;;0.60;;
13445;SDS011;6795;51.232;3.764;2022-10-16T08:39:17;4.90;;;0.80;;
13445;SDS011;6795;51.232;3.764;2022-10-16T08:49:39;4.38;;;0.93;;
13445;SDS011;6795;51.232;3.764;2022-10-16T08:53:20;1.90;;;0.52;;
13445;SDS011;6795;51.232;3.764;2022-10-16T08:56:49;3.17;;;0.30;;
13445;SDS011;6795;51.232;3.764;2022-10-16T09:00:12;4.03;;;0.45;;
13445;SDS011;6795;51.232;3.764;2022-10-16T09:07:31;3.90;;;0.60;;
13445;SDS011;6795;51.232;3.764;2022-10-16T09:10:48;4.22;;;0.75;;
13445;SDS011;6795;51.232;3.764;2022-10-16T09:14:15;4.03;;;0.70;;
13445;SDS011;6795;51.232;3.764;2022-10-16T09:17:41;2.28;;;0.95;;
13445;SDS011;6795;51.232;3.764;2022-10-16T09:20:53;2.42;;;0.75;;
13445;SDS011;6795;51.232;3.764;2022-10-16T09:24:07;8.38;;;0.70;;
13445;SDS011;6795;51.232;3.764;2022-10-16T09:27:35;5.13;;;0.63;;
13445;SDS011;6795;51.232;3.764;2022-10-16T09:35:16;2.38;;;0.70;;
13445;SDS011;6795;51.232;3.764;2022-10-16T09:37:46;2.03;;;0.73;;
13445;SDS011;6795;51.232;3.764;2022-10-16T09:40:24;4.25;;;0.60;;
13445;SDS011;6795;51.232;3.764;2022-10-16T09:42:56;3.35;;;0.50;;
13445;SDS011;6795;51.232;3.764;2022-10-16T09:45:30;2.72;;;0.60;;
13445;SDS011;6795;51.232;3.764;2022-10-16T09:48:00;3.17;;;0.80;;
13445;SDS011;6795;51.232;3.764;2022-10-16T09:50:37;5.20;;;0.77;;
13445;SDS011;6795;51.232;3.764;2022-10-16T09:53:10;7.63;;;0.82;;
13445;SDS011;6795;51.232;3.764;2022-10-16T09:55:49;2.47;;;0.50;;
13445;SDS011;6795;51.232;3.764;2022-10-16T09:58:18;4.53;;;1.02;;
13445;SDS011;6795;51.232;3.764;2022-10-16T10:01:16;4.78;;;0.80;;
13445;SDS011;6795;51.232;3.764;2022-10-16T10:08:20;5.70;;;1.00;;
13445;SDS011;6795;51.232;3.764;2022-10-16T10:15:19;6.55;;;0.80;;
13445;SDS011;6795;51.232;3.764;2022-10-16T10:18:57;5.90;;;0.70;;
13445;SDS011;6795;51.232;3.764;2022-10-16T10:29:43;4.97;;;0.70;;
13445;SDS011;6795;51.232;3.764;2022-10-16T10:33:23;6.32;;;0.73;;
13445;SDS011;6795;51.232;3.764;2022-10-16T10:36:40;6.38;;;1.27;;
13445;SDS011;6795;51.232;3.764;2022-10-16T10:40:02;3.92;;;0.65;;
13445;SDS011;6795;51.232;3.764;2022-10-16T10:50:49;6.03;;;0.70;;
13445;SDS011;6795;51.232;3.764;2022-10-16T10:54:45;4.18;;;0.80;;
13445;SDS011;6795;51.232;3.764;2022-10-16T11:01:49;4.38;;;0.60;;
13445;SDS011;6795;51.232;3.764;2022-10-16T11:08:57;2.95;;;0.70;;
13445;SDS011;6795;51.232;3.764;2022-10-16T11:15:51;4.32;;;1.00;;
13445;SDS011;6795;51.232;3.764;2022-10-16T11:19:25;5.55;;;0.70;;
13445;SDS011;6795;51.232;3.764;2022-10-16T11:22:38;3.40;;;0.60;;
13445;SDS011;6795;51.232;3.764;2022-10-16T11:25:56;8.13;;;0.60;;
13445;SDS011;6795;51.232;3.764;2022-10-16T11:29:22;4.63;;;0.50;;
13445;SDS011;6795;51.232;3.764;2022-10-16T11:32:06;4.18;;;0.90;;
13445;SDS011;6795;51.232;3.764;2022-10-16T11:34:43;4.45;;;0.95;;
13445;SDS011;6795;51.232;3.764;2022-10-16T11:37:17;6.78;;;0.75;;
13445;SDS011;6795;51.232;3.764;2022-10-16T11:39:47;5.15;;;0.50;;
13445;SDS011;6795;51.232;3.764;2022-10-16T11:42:25;8.23;;;1.17;;
13445;SDS011;6795;51.232;3.764;2022-10-16T11:44:59;8.77;;;1.02;;
13445;SDS011;6795;51.232;3.764;2022-10-16T11:47:37;5.50;;;0.98;;
13445;SDS011;6795;51.232;3.764;2022-10-16T11:50:26;2.13;;;0.50;;
13445;SDS011;6795;51.232;3.764;2022-10-16T11:53:00;7.53;;;0.90;;
13445;SDS011;6795;51.232;3.764;2022-10-16T11:55:32;9.38;;;1.00;;
13445;SDS011;6795;51.232;3.764;2022-10-16T11:58:13;7.72;;;1.00;;
13445;SDS011;6795;51.232;3.764;2022-10-16T12:00:52;7.35;;;1.00;;
13445;SDS011;6795;51.232;3.764;2022-10-16T12:03:28;11.90;;;1.38;;
13445;SDS011;6795;51.232;3.764;2022-10-16T12:06:06;7.57;;;1.42;;
13445;SDS011;6795;51.232;3.764;2022-10-16T12:09:43;3.83;;;0.65;;
13445;SDS011;6795;51.232;3.764;2022-10-16T12:12:45;4.05;;;0.63;;
13445;SDS011;6795;51.232;3.764;2022-10-16T12:16:07;3.55;;;0.70;;
13445;SDS011;6795;51.232;3.764;2022-10-16T12:23:24;4.75;;;0.70;;
13445;SDS011;6795;51.232;3.764;2022-10-16T12:26:26;11.50;;;0.88;;
13445;SDS011;6795;51.232;3.764;2022-10-16T12:30:01;4.03;;;0.40;;
13445;SDS011;6795;51.232;3.764;2022-10-16T12:37:22;3.72;;;0.73;;
13445;SDS011;6795;51.232;3.764;2022-10-16T12:40:32;4.50;;;0.50;;
13445;SDS011;6795;51.232;3.764;2022-10-16T12:43:47;5.53;;;0.65;;
13445;SDS011;6795;51.232;3.764;2022-10-16T12:46:58;4.07;;;0.50;;
13445;SDS011;6795;51.232;3.764;2022-10-16T12:50:29;10.55;;;0.57;;
13445;SDS011;6795;51.232;3.764;2022-10-16T13:01:20;3.97;;;0.40;;
13445;SDS011;6795;51.232;3.764;2022-10-16T13:08:43;7.45;;;0.52;;
13445;SDS011;6795;51.232;3.764;2022-10-16T13:19:44;1.10;;;0.40;;
13445;SDS011;6795;51.232;3.764;2022-10-16T13:23:17;5.25;;;0.40;;
13445;SDS011;6795;51.232;3.764;2022-10-16T13:30:02;3.00;;;0.50;;
13445;SDS011;6795;51.232;3.764;2022-10-16T13:33:24;4.30;;;0.55;;
13445;SDS011;6795;51.232;3.764;2022-10-16T13:36:42;5.07;;;0.50;;
13445;SDS011;6795;51.232;3.764;2022-10-16T13:40:34;5.20;;;0.57;;
13445;SDS011;6795;51.232;3.764;2022-10-16T13:47:20;3.75;;;0.55;;
13445;SDS011;6795;51.232;3.764;2022-10-16T13:50:35;4.22;;;0.40;;
13445;SDS011;6795;51.232;3.764;2022-10-16T13:53:56;2.50;;;0.50;;
13445;SDS011;6795;51.232;3.764;2022-10-16T13:57:21;3.13;;;0.60;;
13445;SDS011;6795;51.232;3.764;2022-10-16T14:00:29;3.33;;;0.30;;
13445;SDS011;6795;51.232;3.764;2022-10-16T14:03:50;4.00;;;0.30;;
13445;SDS011;6795;51.232;3.764;2022-10-16T14:10:46;2.30;;;0.30;;
13445;SDS011;6795;51.232;3.764;2022-10-16T14:14:09;5.32;;;0.32;;
13445;SDS011;6795;51.232;3.764;2022-10-16T14:17:57;4.00;;;0.30;;
13445;SDS011;6795;51.232;3.764;2022-10-16T14:20:45;4.13;;;0.60;;
13445;SDS011;6795;51.232;3.764;2022-10-16T14:24:24;3.67;;;0.68;;
13445;SDS011;6795;51.232;3.764;2022-10-16T14:28:04;5.18;;;0.40;;
13445;SDS011;6795;51.232;3.764;2022-10-16T14:31:29;2.25;;;0.82;;
13445;SDS011;6795;51.232;3.764;2022-10-16T14:35:20;1.38;;;0.40;;
13445;SDS011;6795;51.232;3.764;2022-10-16T14:38:42;1.15;;;0.40;;
13445;SDS011;6795;51.232;3.764;2022-10-16T14:45:59;2.55;;;0.30;;
13445;SDS011;6795;51.232;3.764;2022-10-16T14:49:25;4.00;;;0.30;;
13445;SDS011;6795;51.232;3.764;2022-10-16T14:52:37;3.60;;;0.30;;
13445;SDS011;6795;51.232;3.764;2022-10-16T14:55:47;2.88;;;0.30;;
13445;SDS011;6795;51.232;3.764;2022-10-16T14:59:45;3.75;;;0.35;;
13445;SDS011;6795;51.232;3.764;2022-10-16T15:03:31;4.63;;;0.50;;
13445;SDS011;6795;51.232;3.764;2022-10-16T15:10:40;4.35;;;0.70;;
13445;SDS011;6795;51.232;3.764;2022-10-16T15:14:02;4.60;;;0.80;;
13445;SDS011;6795;51.232;3.764;2022-10-16T15:21:21;1.40;;;0.40;;
13445;SDS011;6795;51.232;3.764;2022-10-16T15:24:38;3.08;;;0.73;;
13445;SDS011;6795;51.232;3.764;2022-10-16T15:28:09;1.90;;;0.57;;
13445;SDS011;6795;51.232;3.764;2022-10-16T15:33:05;3.95;;;0.40;;
13445;SDS011;6795;51.232;3.764;2022-10-16T15:38:18;3.05;;;0.45;;
13445;SDS011;6795;51.232;3.764;2022-10-16T15:41:23;2.10;;;0.30;;
13445;SDS011;6795;51.232;3.764;2022-10-16T15:44:47;2.22;;;0.28;;
13445;SDS011;6795;51.232;3.764;2022-10-16T15:47:48;1.40;;;0.30;;
13445;SDS011;6795;51.232;3.764;2022-10-16T15:51:13;1.38;;;0.90;;
13445;SDS011;6795;51.232;3.764;2022-10-16T15:54:46;0.93;;;0.28;;
13445;SDS011;6795;51.232;3.764;2022-10-16T15:57:39;0.90;;;0.30;;
13445;SDS011;6795;51.232;3.764;2022-10-16T16:00:10;0.40;;;0.20;;
13445;SDS011;6795;51.232;3.764;2022-10-16T16:02:40;0.55;;;0.10;;
13445;SDS011;6795;51.232;3.764;2022-10-16T16:05:10;3.45;;;0.30;;
13445;SDS011;6795;51.232;3.764;2022-10-16T16:07:40;1.25;;;0.20;;
13445;SDS011;6795;51.232;3.764;2022-10-16T16:11:12;1.58;;;0.40;;
13445;SDS011;6795;51.232;3.764;2022-10-16T16:14:38;1.20;;;0.20;;
13445;SDS011;6795;51.232;3.764;2022-10-16T16:18:04;1.15;;;0.45;;
13445;SDS011;6795;51.232;3.764;2022-10-16T16:21:32;1.15;;;0.35;;
13445;SDS011;6795;51.232;3.764;2022-10-16T16:25:06;1.45;;;0.30;;
13445;SDS011;6795;51.232;3.764;2022-10-16T16:28:23;1.33;;;0.30;;
13445;SDS011;6795;51.232;3.764;2022-10-16T16:31:53;1.65;;;0.40;;
13445;SDS011;6795;51.232;3.764;2022-10-16T16:35:16;1.63;;;0.50;;
13445;SDS011;6795;51.232;3.764;2022-10-16T16:38:09;1.80;;;0.50;;
13445;SDS011;6795;51.232;3.764;2022-10-16T16:45:13;3.70;;;1.10;;
13445;SDS011;6795;51.232;3.764;2022-10-16T16:48:16;6.65;;;1.02;;
13445;SDS011;6795;51.232;3.764;2022-10-16T16:51:33;1.83;;;0.85;;
13445;SDS011;6795;51.232;3.764;2022-10-16T16:54:52;2.28;;;1.08;;
13445;SDS011;6795;51.232;3.764;2022-10-16T16:58:03;2.42;;;1.60;;
13445;SDS011;6795;51.232;3.764;2022-10-16T17:01:18;5.32;;;2.63;;
13445;SDS011;6795;51.232;3.764;2022-10-16T17:04:28;3.42;;;2.75;;
13445;SDS011;6795;51.232;3.764;2022-10-16T17:07:34;2.80;;;2.13;;
13445;SDS011;6795;51.232;3.764;2022-10-16T17:11:00;4.03;;;2.05;;
13445;SDS011;6795;51.232;3.764;2022-10-16T17:14:34;2.85;;;1.13;;
13445;SDS011;6795;51.232;3.764;2022-10-16T17:17:54;4.88;;;1.40;;
13445;SDS011;6795;51.232;3.764;2022-10-16T17:21:05;3.72;;;0.90;;
13445;SDS011;6795;51.232;3.764;2022-10-16T17:24:18;4.93;;;0.60;;
13445;SDS011;6795;51.232;3.764;2022-10-16T17:27:43;3.47;;;0.75;;
13445;SDS011;6795;51.232;3.764;2022-10-16T17:39:03;5.05;;;1.30;;
13445;SDS011;6795;51.232;3.764;2022-10-16T17:42:25;2.25;;;1.00;;
13445;SDS011;6795;51.232;3.764;2022-10-16T17:45:42;3.97;;;1.40;;
13445;SDS011;6795;51.232;3.764;2022-10-16T17:48:49;2.75;;;1.17;;
13445;SDS011;6795;51.232;3.764;2022-10-16T17:52:01;6.60;;;0.90;;
13445;SDS011;6795;51.232;3.764;2022-10-16T17:55:18;3.25;;;0.80;;
13445;SDS011;6795;51.232;3.764;2022-10-16T17:58:56;3.88;;;0.90;;
13445;SDS011;6795;51.232;3.764;2022-10-16T18:02:02;2.45;;;0.70;;
13445;SDS011;6795;51.232;3.764;2022-10-16T18:05:16;5.43;;;1.08;;
13445;SDS011;6795;51.232;3.764;2022-10-16T18:08:42;4.25;;;1.05;;
13445;SDS011;6795;51.232;3.764;2022-10-16T18:12:45;5.40;;;1.52;;
13445;SDS011;6795;51.232;3.764;2022-10-16T18:16:09;2.78;;;1.15;;
13445;SDS011;6795;51.232;3.764;2022-10-16T18:19:46;7.07;;;1.80;;
13445;SDS011;6795;51.232;3.764;2022-10-16T18:23:16;1.60;;;1.10;;
13445;SDS011;6795;51.232;3.764;2022-10-16T18:26:34;2.95;;;1.45;;
13445;SDS011;6795;51.232;3.764;2022-10-16T18:29:48;5.15;;;1.33;;
13445;SDS011;6795;51.232;3.764;2022-10-16T18:33:00;4.32;;;1.67;;
13445;SDS011;6795;51.232;3.764;2022-10-16T18:36:18;2.70;;;1.55;;
13445;SDS011;6795;51.232;3.764;2022-10-16T18:39:38;5.45;;;1.55;;
13445;SDS011;6795;51.232;3.764;2022-10-16T18:47:24;3.60;;;1.50;;
13445;SDS011;6795;51.232;3.764;2022-10-16T18:50:53;4.85;;;1.45;;
13445;SDS011;6795;51.232;3.764;2022-10-16T18:54:13;2.83;;;1.23;;
13445;SDS011;6795;51.232;3.764;2022-10-16T18:57:31;7.28;;;1.70;;
13445;SDS011;6795;51.232;3.764;2022-10-16T19:00:53;5.25;;;1.63;;
13445;SDS011;6795;51.232;3.764;2022-10-16T19:04:03;2.97;;;1.27;;
13445;SDS011;6795;51.232;3.764;2022-10-16T19:07:16;4.20;;;1.80;;
13445;SDS011;6795;51.232;3.764;2022-10-16T19:10:48;5.15;;;2.10;;
13445;SDS011;6795;51.232;3.764;2022-10-16T19:20:47;4.43;;;1.60;;
13445;SDS011;6795;51.232;3.764;2022-10-16T19:24:02;3.47;;;1.30;;
13445;SDS011;6795;51.232;3.764;2022-10-16T19:27:17;3.33;;;1.30;;
13445;SDS011;6795;51.232;3.764;2022-10-16T19:30:48;6.45;;;1.35;;
13445;SDS011;6795;51.232;3.764;2022-10-16T19:41:52;3.38;;;1.67;;
13445;SDS011;6795;51.232;3.764;2022-10-16T19:45:00;3.33;;;1.98;;
13445;SDS011;6795;51.232;3.764;2022-10-16T19:48:08;3.17;;;2.03;;
13445;SDS011;6795;51.232;3.764;2022-10-16T19:51:25;2.05;;;1.83;;
13445;SDS011;6795;51.232;3.764;2022-10-16T19:54:33;2.75;;;1.65;;
13445;SDS011;6795;51.232;3.764;2022-10-16T19:58:15;4.60;;;2.00;;
13445;SDS011;6795;51.232;3.764;2022-10-16T20:01:46;2.55;;;1.73;;
13445;SDS011;6795;51.232;3.764;2022-10-16T20:05:35;2.35;;;1.90;;
13445;SDS011;6795;51.232;3.764;2022-10-16T20:08:57;3.47;;;1.80;;
13445;SDS011;6795;51.232;3.764;2022-10-16T20:12:02;2.92;;;1.65;;
13445;SDS011;6795;51.232;3.764;2022-10-16T20:15:17;2.95;;;1.73;;
13445;SDS011;6795;51.232;3.764;2022-10-16T20:18:32;2.03;;;1.40;;
13445;SDS011;6795;51.232;3.764;2022-10-16T20:21:43;3.67;;;2.00;;
13445;SDS011;6795;51.232;3.764;2022-10-16T20:24:40;2.50;;;1.42;;
13445;SDS011;6795;51.232;3.764;2022-10-16T20:27:53;4.75;;;1.73;;